Time;durP1;ratioP1;P1;durP2;ratioP2;P2;SDS_P1;SDS_P2;PMS_P1;PMS_P2;Temp;Humidity;BMP_temperature;BMP_pressure;BME280_temperature;BME280_humidity;BME280_pressure;Samples;Min_cycle;Max_cycle;Signal;HPM_P1;HPM_P2
2023/05/26 00:00:27;;;;;;;13.18;3.50;;;11.10;99.90;;;;;;5082921;28;20024;-42
2023/05/26 00:02:55;;;;;;;12.23;4.13;;;11.10;99.90;;;;;;5082004;28;20126;-41
2023/05/26 00:05:21;;;;;;;12.55;3.40;;;11.10;99.90;;;;;;5081962;28;20032;-39
2023/05/26 00:07:47;;;;;;;17.67;4.10;;;11.00;99.90;;;;;;5081468;28;20028;-41
2023/05/26 00:10:13;;;;;;;14.55;3.40;;;11.00;99.90;;;;;;5082081;28;20039;-41
2023/05/26 00:12:39;;;;;;;12.98;3.33;;;11.00;99.90;;;;;;5082768;28;20028;-41
2023/05/26 00:15:05;;;;;;;15.07;4.32;;;10.90;99.90;;;;;;5082716;28;20069;-40
2023/05/26 00:17:31;;;;;;;15.00;4.28;;;10.90;99.90;;;;;;5082322;28;20032;-41
2023/05/26 00:19:59;;;;;;;15.70;4.20;;;10.80;99.90;;;;;;5083242;28;20107;-39
2023/05/26 00:22:25;;;;;;;13.05;3.55;;;10.80;99.90;;;;;;5083192;28;20043;-42
2023/05/26 00:24:52;;;;;;;11.50;3.00;;;10.80;99.90;;;;;;5082479;28;20020;-43
2023/05/26 00:27:18;;;;;;;12.18;2.92;;;10.70;99.90;;;;;;5082792;28;20036;-41
2023/05/26 00:29:43;;;;;;;14.55;4.05;;;10.70;99.90;;;;;;5082664;28;20097;-42
2023/05/26 00:32:12;;;;;;;14.43;3.78;;;10.70;99.90;;;;;;5081504;28;20143;-43
2023/05/26 00:34:37;;;;;;;11.13;3.33;;;10.70;99.90;;;;;;5082345;28;20139;-43
2023/05/26 00:37:03;;;;;;;14.38;3.53;;;10.60;99.90;;;;;;5082510;28;20134;-40
2023/05/26 00:39:30;;;;;;;17.95;3.97;;;10.60;99.90;;;;;;5082494;28;20024;-41
2023/05/26 00:41:56;;;;;;;17.23;3.80;;;10.60;99.90;;;;;;5082868;28;20085;-42
2023/05/26 00:44:22;;;;;;;20.65;4.90;;;10.50;99.90;;;;;;5081665;28;20032;-42
2023/05/26 00:46:48;;;;;;;13.60;3.47;;;10.50;99.90;;;;;;5081639;28;20435;-40
2023/05/26 00:49:14;;;;;;;12.50;3.83;;;10.40;99.90;;;;;;5082486;28;20043;-41
2023/05/26 00:51:40;;;;;;;11.88;3.30;;;10.40;99.90;;;;;;5081660;28;20105;-40
2023/05/26 00:54:06;;;;;;;12.02;3.50;;;10.40;99.90;;;;;;5082633;28;20050;-41
2023/05/26 00:56:35;;;;;;;15.75;3.92;;;10.50;99.90;;;;;;5082004;28;20117;-42
2023/05/26 00:59:02;;;;;;;14.32;3.90;;;10.40;99.90;;;;;;5082495;28;20019;-42
2023/05/26 01:01:31;;;;;;;13.25;3.92;;;10.40;99.90;;;;;;5081752;28;20028;-42
2023/05/26 01:03:57;;;;;;;17.00;4.35;;;10.40;99.90;;;;;;5082484;28;20074;-42
2023/05/26 01:06:24;;;;;;;12.73;3.83;;;10.30;99.90;;;;;;5080822;28;20027;-42
2023/05/26 01:08:50;;;;;;;17.55;4.10;;;10.20;99.90;;;;;;5082494;28;20024;-41
2023/05/26 01:11:18;;;;;;;9.98;3.00;;;10.20;99.90;;;;;;5081798;28;20484;-42
2023/05/26 01:14:01;;;;;;;11.77;3.40;;;10.20;99.90;;;;;;5079999;28;20039;-41
2023/05/26 01:16:33;;;;;;;12.73;3.75;;;10.20;99.90;;;;;;5080383;28;20016;-41
2023/05/26 01:19:21;;;;;;;13.65;3.20;;;10.10;99.90;;;;;;5081342;28;20024;-42
2023/05/26 01:21:50;;;;;;;11.40;3.20;;;10.10;99.90;;;;;;5081412;28;20043;-41
2023/05/26 01:24:27;;;;;;;11.55;3.33;;;10.00;99.90;;;;;;5082311;28;20021;-41
2023/05/26 01:27:06;;;;;;;12.85;3.30;;;10.00;99.90;;;;;;5080501;28;20028;-38
2023/05/26 01:29:35;;;;;;;12.43;3.42;;;10.00;99.90;;;;;;5061317;28;20895;-38
2023/05/26 01:32:10;;;;;;;11.32;3.17;;;10.00;99.90;;;;;;5076369;28;20051;-42
2023/05/26 01:34:36;;;;;;;12.48;3.30;;;10.00;99.90;;;;;;5080031;28;20027;-39
2023/05/26 01:37:01;;;;;;;17.23;3.80;;;9.90;99.90;;;;;;5081150;28;20096;-36
2023/05/26 01:39:27;;;;;;;13.43;3.58;;;9.90;99.90;;;;;;5080955;28;20123;-40
2023/05/26 01:42:11;;;;;;;11.88;3.30;;;9.90;99.90;;;;;;5080693;28;20486;-42
2023/05/26 01:44:55;;;;;;;15.77;4.20;;;9.90;99.90;;;;;;5081458;28;20020;-42
2023/05/26 01:47:23;;;;;;;12.23;3.28;;;9.90;99.90;;;;;;5080653;28;20036;-41
2023/05/26 01:49:51;;;;;;;11.52;3.05;;;9.80;99.90;;;;;;5081403;28;20376;-40
2023/05/26 01:52:18;;;;;;;14.35;3.42;;;9.80;99.90;;;;;;5083599;28;20040;-41
2023/05/26 01:54:47;;;;;;;14.00;3.97;;;9.80;99.90;;;;;;5085076;28;20028;-43
2023/05/26 01:57:20;;;;;;;12.18;3.78;;;9.80;99.90;;;;;;5084830;28;20048;-42
2023/05/26 01:59:48;;;;;;;13.43;3.08;;;9.80;99.90;;;;;;5085264;28;20027;-40
2023/05/26 02:02:13;;;;;;;17.60;3.53;;;9.80;99.90;;;;;;5084672;28;20020;-41
2023/05/26 02:04:39;;;;;;;14.68;4.22;;;9.70;99.90;;;;;;5085196;28;20584;-41
2023/05/26 02:07:07;;;;;;;9.20;2.90;;;9.70;99.90;;;;;;5084080;28;20028;-42
2023/05/26 02:09:33;;;;;;;15.80;3.85;;;9.70;99.90;;;;;;5073157;28;20773;-39
2023/05/26 02:11:58;;;;;;;14.00;3.65;;;9.70;99.90;;;;;;5085082;28;20085;-42
2023/05/26 02:14:24;;;;;;;9.73;3.60;;;9.70;99.90;;;;;;5084653;28;20493;-42
2023/05/26 02:16:49;;;;;;;14.25;3.65;;;9.60;99.90;;;;;;5084974;28;20838;-41
2023/05/26 02:19:15;;;;;;;13.50;3.75;;;9.60;99.90;;;;;;5085349;28;20476;-40
2023/05/26 02:21:41;;;;;;;15.50;3.90;;;9.60;99.90;;;;;;5083574;28;20020;-40
2023/05/26 02:24:07;;;;;;;20.73;4.60;;;9.60;99.90;;;;;;5083189;28;20036;-42
2023/05/26 02:26:33;;;;;;;12.88;3.47;;;9.50;99.90;;;;;;5083791;28;20020;-42
2023/05/26 02:29:01;;;;;;;12.68;3.95;;;9.50;99.90;;;;;;5083540;28;20376;-43
2023/05/26 02:31:27;;;;;;;23.83;3.63;;;9.50;99.90;;;;;;5083127;28;20032;-40
2023/05/26 02:33:52;;;;;;;17.42;3.80;;;9.50;99.90;;;;;;5084968;28;20020;-40
2023/05/26 02:36:18;;;;;;;18.35;4.20;;;9.50;99.90;;;;;;5084119;28;20028;-41
2023/05/26 02:38:44;;;;;;;16.75;4.03;;;9.50;99.90;;;;;;5083521;28;20050;-41
2023/05/26 02:41:09;;;;;;;16.58;4.15;;;9.60;99.90;;;;;;5084685;28;20038;-41
2023/05/26 02:43:37;;;;;;;12.25;3.50;;;9.60;99.90;;;;;;5082967;28;20028;-40
2023/05/26 02:46:03;;;;;;;10.90;3.47;;;9.60;99.90;;;;;;5084812;28;20024;-41
2023/05/26 02:48:28;;;;;;;14.98;3.90;;;9.60;99.90;;;;;;5084023;28;20012;-42
2023/05/26 02:50:55;;;;;;;14.07;3.63;;;9.50;99.90;;;;;;5083531;28;20117;-41
2023/05/26 02:53:21;;;;;;;15.70;3.60;;;9.50;99.90;;;;;;5084585;28;20039;-41
2023/05/26 02:55:47;;;;;;;15.13;4.00;;;9.50;99.90;;;;;;5084023;28;20020;-41
2023/05/26 02:58:13;;;;;;;15.95;4.13;;;9.50;99.90;;;;;;5083479;28;20089;-41
2023/05/26 03:00:39;;;;;;;11.68;3.17;;;9.50;99.90;;;;;;5083775;28;20027;-41
2023/05/26 03:03:07;;;;;;;16.20;3.60;;;9.50;99.90;;;;;;5083467;28;20028;-41
2023/05/26 03:05:33;;;;;;;15.15;3.63;;;9.40;99.90;;;;;;5082408;28;20114;-40
2023/05/26 03:07:59;;;;;;;20.80;3.78;;;9.40;99.90;;;;;;5084210;28;20032;-42
2023/05/26 03:10:32;;;;;;;14.90;4.40;;;9.40;99.90;;;;;;5083616;28;20020;-40
2023/05/26 03:12:58;;;;;;;11.70;3.20;;;9.40;99.90;;;;;;5063904;28;20033;-39
2023/05/26 03:15:34;;;;;;;12.90;3.78;;;9.40;99.90;;;;;;5077714;28;20024;-40
2023/05/26 03:18:00;;;;;;;15.10;3.40;;;9.40;99.90;;;;;;5084157;28;20493;-39
2023/05/26 03:20:26;;;;;;;18.85;4.47;;;9.30;99.90;;;;;;5083200;28;20023;-40
2023/05/26 03:22:52;;;;;;;15.18;4.40;;;9.30;99.90;;;;;;5084715;28;20056;-40
2023/05/26 03:25:17;;;;;;;14.52;3.45;;;9.30;99.90;;;;;;5084139;28;20026;-43
2023/05/26 03:27:43;;;;;;;16.95;4.50;;;9.20;99.90;;;;;;5082999;28;20028;-41
2023/05/26 03:30:09;;;;;;;11.20;3.38;;;9.20;99.90;;;;;;5082740;28;20016;-41
2023/05/26 03:32:34;;;;;;;11.80;2.83;;;9.20;99.90;;;;;;5082176;28;20055;-41
2023/05/26 03:35:00;;;;;;;14.15;3.83;;;9.20;99.90;;;;;;5082019;28;20020;-41
2023/05/26 03:37:25;;;;;;;9.40;3.28;;;9.20;99.90;;;;;;5082744;28;20058;-41
2023/05/26 03:39:51;;;;;;;13.68;3.50;;;9.20;99.90;;;;;;5082413;28;20040;-40
2023/05/26 03:42:17;;;;;;;13.25;3.15;;;9.20;99.90;;;;;;5082915;28;20584;-42
2023/05/26 03:44:45;;;;;;;11.50;3.25;;;9.20;99.90;;;;;;5082832;28;20031;-41
2023/05/26 03:47:11;;;;;;;17.17;3.60;;;9.10;99.90;;;;;;5082564;28;20151;-41
2023/05/26 03:49:36;;;;;;;13.43;3.55;;;9.20;99.90;;;;;;5083007;28;20786;-41
2023/05/26 03:52:02;;;;;;;13.73;3.30;;;9.10;99.90;;;;;;5083114;28;20035;-41
2023/05/26 03:54:27;;;;;;;8.05;2.95;;;9.10;99.90;;;;;;5081732;28;20028;-41
2023/05/26 03:56:55;;;;;;;13.48;3.10;;;9.10;99.90;;;;;;5083254;28;20399;-41
2023/05/26 03:59:20;;;;;;;20.90;4.20;;;9.10;99.90;;;;;;5082529;28;20028;-40
2023/05/26 04:01:46;;;;;;;19.17;3.83;;;9.10;99.90;;;;;;5082218;28;20645;-41
2023/05/26 04:04:12;;;;;;;12.73;3.55;;;9.10;99.90;;;;;;5083431;28;20749;-40
2023/05/26 04:06:38;;;;;;;14.88;3.25;;;9.10;99.90;;;;;;5082455;28;20380;-40
2023/05/26 04:09:04;;;;;;;9.07;3.10;;;9.10;99.90;;;;;;5082315;28;20554;-38
2023/05/26 04:11:30;;;;;;;10.38;2.97;;;9.10;99.90;;;;;;5082311;28;20036;-41
2023/05/26 04:13:58;;;;;;;13.55;2.95;;;9.10;99.90;;;;;;5081940;28;20064;-41
2023/05/26 04:16:24;;;;;;;13.98;3.80;;;9.00;99.90;;;;;;5080993;28;20690;-39
2023/05/26 04:18:50;;;;;;;13.35;2.95;;;9.10;99.90;;;;;;5082351;28;20016;-41
2023/05/26 04:21:15;;;;;;;12.18;3.25;;;9.10;99.90;;;;;;5082472;28;20035;-42
2023/05/26 04:23:47;;;;;;;14.25;3.83;;;9.10;99.90;;;;;;5081784;28;20051;-41
2023/05/26 04:26:13;;;;;;;12.43;3.30;;;9.10;99.90;;;;;;5082935;28;20059;-41
2023/05/26 04:28:38;;;;;;;13.50;3.42;;;9.10;99.90;;;;;;5082340;28;20451;-41
2023/05/26 04:31:04;;;;;;;15.45;3.45;;;9.10;99.90;;;;;;5082621;28;20040;-41
2023/05/26 04:33:30;;;;;;;10.70;3.38;;;9.20;99.90;;;;;;5082027;28;20027;-41
2023/05/26 04:35:56;;;;;;;10.25;3.03;;;9.10;99.90;;;;;;5082848;28;20028;-42
2023/05/26 04:38:22;;;;;;;10.23;2.47;;;9.20;99.90;;;;;;5081040;28;20042;-42
2023/05/26 04:40:48;;;;;;;12.50;3.28;;;9.20;99.90;;;;;;5081033;28;20034;-39
2023/05/26 04:43:14;;;;;;;13.57;3.72;;;9.20;99.90;;;;;;5080053;28;20059;-38
2023/05/26 04:45:46;;;;;;;15.95;4.10;;;9.20;99.90;;;;;;5080821;28;20064;-41
2023/05/26 04:48:15;;;;;;;15.40;4.05;;;9.20;99.90;;;;;;5081735;28;20072;-42
2023/05/26 04:50:50;;;;;;;15.07;3.83;;;9.20;99.90;;;;;;5080573;28;20036;-42
2023/05/26 04:53:15;;;;;;;17.33;4.00;;;9.20;99.90;;;;;;5081892;28;20028;-41
2023/05/26 04:55:41;;;;;;;12.77;3.20;;;9.30;99.90;;;;;;5081526;28;20101;-41
2023/05/26 04:58:06;;;;;;;14.98;3.65;;;9.30;99.90;;;;;;5081422;28;20089;-42
2023/05/26 05:00:34;;;;;;;19.45;4.60;;;9.30;99.90;;;;;;5081536;28;20047;-41
2023/05/26 05:03:00;;;;;;;16.83;3.70;;;9.30;99.90;;;;;;5081609;28;20070;-42
2023/05/26 05:05:25;;;;;;;17.17;3.78;;;9.40;99.90;;;;;;5081009;28;20531;-41
2023/05/26 05:07:51;;;;;;;17.35;3.58;;;9.40;99.90;;;;;;5081470;28;20020;-41
2023/05/26 05:10:17;;;;;;;12.80;3.45;;;9.40;99.90;;;;;;5081708;28;20028;-40
2023/05/26 05:12:43;;;;;;;15.52;3.72;;;9.40;99.90;;;;;;5081487;28;20042;-39
2023/05/26 05:15:09;;;;;;;10.88;2.80;;;9.50;99.90;;;;;;5081973;28;20027;-40
2023/05/26 05:17:35;;;;;;;12.80;3.15;;;9.50;99.90;;;;;;5081829;28;20020;-40
2023/05/26 05:20:00;;;;;;;10.68;3.05;;;9.60;99.90;;;;;;5080965;28;20473;-40
2023/05/26 05:22:26;;;;;;;11.52;3.30;;;9.60;99.90;;;;;;5081102;28;20027;-37
2023/05/26 05:24:51;;;;;;;10.95;3.22;;;9.70;99.90;;;;;;5082131;28;20468;-40
2023/05/26 05:27:20;;;;;;;17.25;3.50;;;9.70;99.90;;;;;;5080231;28;20103;-41
2023/05/26 05:29:45;;;;;;;13.68;2.95;;;9.80;99.90;;;;;;5081587;28;20021;-40
2023/05/26 05:32:11;;;;;;;12.65;3.42;;;9.80;99.90;;;;;;5081539;28;20640;-40
2023/05/26 05:34:36;;;;;;;13.20;3.00;;;9.90;99.90;;;;;;5080744;28;20081;-42
2023/05/26 05:37:02;;;;;;;12.00;2.67;;;9.90;99.90;;;;;;5081144;28;20032;-40
2023/05/26 05:39:28;;;;;;;18.05;4.18;;;10.00;99.90;;;;;;5080391;28;20028;-43
2023/05/26 05:41:53;;;;;;;16.08;4.47;;;10.00;99.90;;;;;;5079072;28;20050;-42
2023/05/26 05:44:19;;;;;;;15.77;3.83;;;10.10;99.90;;;;;;5080066;28;20851;-40
2023/05/26 05:46:44;;;;;;;12.70;3.50;;;10.10;99.90;;;;;;5079681;28;20058;-40
2023/05/26 05:49:10;;;;;;;18.92;4.82;;;10.10;99.90;;;;;;5079660;28;20066;-41
2023/05/26 05:51:35;;;;;;;16.73;4.10;;;10.10;99.90;;;;;;5079762;28;20606;-40
2023/05/26 05:54:01;;;;;;;13.55;3.78;;;10.20;99.90;;;;;;5079684;28;20121;-41
2023/05/26 05:56:29;;;;;;;22.00;4.53;;;10.20;99.90;;;;;;5079142;28;20059;-41
2023/05/26 05:58:55;;;;;;;16.13;4.28;;;10.30;99.90;;;;;;5080827;28;20028;-40
2023/05/26 06:01:21;;;;;;;14.45;3.65;;;10.30;99.90;;;;;;5080114;28;20035;-42
2023/05/26 06:03:46;;;;;;;16.70;3.58;;;10.40;99.90;;;;;;5080640;28;20059;-42
2023/05/26 06:06:12;;;;;;;12.80;3.22;;;10.40;99.90;;;;;;5079483;28;20016;-41
2023/05/26 06:08:38;;;;;;;14.15;3.83;;;10.50;99.90;;;;;;5079572;28;20543;-41
2023/05/26 06:11:06;;;;;;;12.90;3.53;;;10.50;99.90;;;;;;5079162;28;20562;-41
2023/05/26 06:13:32;;;;;;;12.38;3.72;;;10.60;99.90;;;;;;5080103;28;20376;-42
2023/05/26 06:15:57;;;;;;;15.45;3.83;;;10.60;99.90;;;;;;5079192;28;20746;-41
2023/05/26 06:18:23;;;;;;;16.13;4.43;;;10.60;99.90;;;;;;5080164;28;20028;-41
2023/05/26 06:20:48;;;;;;;16.08;3.72;;;10.70;99.90;;;;;;5081525;28;20123;-41
2023/05/26 06:23:14;;;;;;;15.20;4.00;;;10.70;99.90;;;;;;5080485;28;20107;-42
2023/05/26 06:25:39;;;;;;;19.92;4.35;;;10.80;99.90;;;;;;5080683;28;20051;-42
2023/05/26 06:28:05;;;;;;;16.73;4.25;;;10.70;99.90;;;;;;5081956;28;20073;-42
2023/05/26 06:30:37;;;;;;;15.82;3.58;;;10.80;99.90;;;;;;5079907;28;20024;-42
2023/05/26 06:33:03;;;;;;;13.05;3.67;;;10.90;99.90;;;;;;5080969;28;20115;-41
2023/05/26 06:35:28;;;;;;;18.35;4.20;;;10.90;99.90;;;;;;5080706;28;20028;-41
2023/05/26 06:37:54;;;;;;;15.07;3.97;;;10.90;99.90;;;;;;5081808;28;20069;-41
2023/05/26 06:40:19;;;;;;;11.65;3.78;;;11.00;99.90;;;;;;5082349;28;20619;-41
2023/05/26 06:42:45;;;;;;;18.40;4.28;;;11.10;99.90;;;;;;5082976;28;20031;-40
2023/05/26 06:45:10;;;;;;;16.50;3.90;;;11.20;99.90;;;;;;5084386;28;20139;-42
2023/05/26 06:47:36;;;;;;;16.77;3.97;;;11.30;99.90;;;;;;5083017;28;20791;-41
2023/05/26 06:50:01;;;;;;;14.75;4.22;;;11.40;99.90;;;;;;5082908;28;20408;-41
2023/05/26 06:52:27;;;;;;;13.25;3.90;;;11.50;99.90;;;;;;5083206;28;21025;-41
2023/05/26 06:54:53;;;;;;;18.52;4.50;;;11.60;99.90;;;;;;5084907;28;20546;-42
2023/05/26 06:57:18;;;;;;;18.35;3.90;;;11.70;99.90;;;;;;5082520;28;20846;-42
2023/05/26 06:59:44;;;;;;;16.23;3.53;;;11.70;99.90;;;;;;5083624;28;20031;-43
2023/05/26 07:02:10;;;;;;;14.50;4.00;;;11.70;99.90;;;;;;5082701;28;20024;-42
2023/05/26 07:04:35;;;;;;;13.07;3.60;;;11.80;99.90;;;;;;5082408;28;20036;-42
2023/05/26 07:07:04;;;;;;;13.57;4.30;;;11.80;99.90;;;;;;5083338;28;20075;-40
2023/05/26 07:09:33;;;;;;;16.52;3.90;;;11.70;99.90;;;;;;5082695;28;20036;-40
2023/05/26 07:11:58;;;;;;;14.10;4.72;;;11.80;99.90;;;;;;5083131;28;20485;-41
2023/05/26 07:14:24;;;;;;;15.55;4.10;;;11.80;99.90;;;;;;5094249;28;20020;-40
2023/05/26 07:16:52;;;;;;;14.55;3.70;;;11.80;99.90;;;;;;5084892;28;20016;-41
2023/05/26 07:19:18;;;;;;;14.70;3.70;;;11.90;99.90;;;;;;5082520;28;20024;-42
2023/05/26 07:21:46;;;;;;;13.63;3.78;;;12.00;99.90;;;;;;5083635;28;20031;-42
2023/05/26 07:24:12;;;;;;;20.20;4.97;;;12.00;99.90;;;;;;5081962;28;20024;-42
2023/05/26 07:26:37;;;;;;;14.43;4.10;;;12.00;99.90;;;;;;5082655;28;20024;-41
2023/05/26 07:29:03;;;;;;;15.05;4.30;;;11.90;99.90;;;;;;5083562;28;20031;-42
2023/05/26 07:31:28;;;;;;;19.52;4.22;;;11.90;99.90;;;;;;5083620;28;20036;-42
2023/05/26 07:33:54;;;;;;;11.40;3.78;;;12.00;99.90;;;;;;5083400;28;20016;-42
2023/05/26 07:36:19;;;;;;;13.20;4.28;;;12.10;99.90;;;;;;5084006;28;20039;-42
2023/05/26 07:38:45;;;;;;;10.25;3.30;;;12.10;99.90;;;;;;5083527;28;20023;-42
2023/05/26 07:41:11;;;;;;;13.85;3.67;;;12.10;99.90;;;;;;5082426;28;20431;-42
2023/05/26 07:43:36;;;;;;;14.38;3.20;;;12.10;99.90;;;;;;5082874;28;20024;-42
2023/05/26 07:46:05;;;;;;;13.35;4.28;;;12.10;99.90;;;;;;5083058;28;20028;-42
2023/05/26 07:48:30;;;;;;;13.63;4.10;;;12.10;99.90;;;;;;5082946;28;20032;-42
2023/05/26 07:50:59;;;;;;;17.15;3.80;;;12.10;99.90;;;;;;5083092;28;20089;-42
2023/05/26 07:53:25;;;;;;;12.93;3.50;;;12.10;99.90;;;;;;5082386;28;20093;-43
2023/05/26 07:55:50;;;;;;;19.15;3.97;;;12.10;99.90;;;;;;5083351;28;20439;-41
2023/05/26 07:58:17;;;;;;;10.18;3.33;;;12.10;99.90;;;;;;5083551;28;20121;-42
2023/05/26 08:00:43;;;;;;;15.25;4.03;;;12.10;99.90;;;;;;5081416;28;20024;-42
2023/05/26 08:03:08;;;;;;;13.70;3.88;;;12.10;99.90;;;;;;5083182;28;20085;-40
2023/05/26 08:05:34;;;;;;;13.02;3.30;;;12.10;99.90;;;;;;5081212;28;20052;-38
2023/05/26 08:07:59;;;;;;;15.30;3.80;;;12.20;99.90;;;;;;5080087;28;20020;-43
2023/05/26 08:10:25;;;;;;;14.65;3.88;;;12.20;99.90;;;;;;5079059;28;20460;-43
2023/05/26 08:12:52;;;;;;;14.65;3.60;;;12.30;99.90;;;;;;5080808;28;20039;-42
2023/05/26 08:15:20;;;;;;;13.65;4.40;;;12.30;99.90;;;;;;5079987;28;20027;-42
2023/05/26 08:17:47;;;;;;;15.38;3.75;;;12.40;99.90;;;;;;5079483;28;20054;-41
2023/05/26 08:20:12;;;;;;;14.18;4.50;;;12.40;99.90;;;;;;5081116;28;20780;-43
2023/05/26 08:22:38;;;;;;;13.13;4.05;;;12.50;99.90;;;;;;5082545;28;20032;-42
2023/05/26 08:25:04;;;;;;;14.55;3.60;;;12.50;99.90;;;;;;5083243;28;20036;-42
2023/05/26 08:27:30;;;;;;;13.95;3.65;;;12.60;99.90;;;;;;5082712;28;20063;-40
2023/05/26 08:29:55;;;;;;;11.25;3.17;;;12.50;99.90;;;;;;5082149;28;20520;-41
2023/05/26 08:32:21;;;;;;;12.02;3.42;;;12.60;99.90;;;;;;5082822;28;20529;-42
2023/05/26 08:34:46;;;;;;;12.38;3.53;;;12.60;99.90;;;;;;5081388;28;20519;-41
2023/05/26 08:37:13;;;;;;;14.85;3.65;;;12.70;99.90;;;;;;5082214;28;20016;-42
2023/05/26 08:39:40;;;;;;;10.85;3.65;;;12.70;99.90;;;;;;5082577;28;20048;-41
2023/05/26 08:42:06;;;;;;;11.10;3.95;;;12.70;99.90;;;;;;5081707;28;20020;-42
2023/05/26 08:44:36;;;;;;;9.68;3.25;;;12.80;99.90;;;;;;5082184;28;20107;-43
2023/05/26 08:47:05;;;;;;;12.65;3.50;;;12.90;99.90;;;;;;5082338;28;20032;-43
2023/05/26 08:49:36;;;;;;;10.93;3.75;;;12.90;99.90;;;;;;5081023;28;20020;-42
2023/05/26 08:52:16;;;;;;;15.70;3.65;;;13.00;99.90;;;;;;5081977;28;20044;-42
2023/05/26 08:54:42;;;;;;;15.98;3.80;;;13.00;99.90;;;;;;5082251;28;20028;-42
2023/05/26 08:57:09;;;;;;;8.98;2.63;;;13.10;99.90;;;;;;5080879;28;20812;-40
2023/05/26 08:59:36;;;;;;;8.60;2.72;;;13.10;99.90;;;;;;5081828;28;20016;-42
2023/05/26 09:02:02;;;;;;;19.13;4.05;;;13.10;99.90;;;;;;5080804;28;20499;-41
2023/05/26 09:04:29;;;;;;;14.27;4.07;;;13.20;99.90;;;;;;5080758;28;20028;-41
2023/05/26 09:06:55;;;;;;;15.55;3.70;;;13.20;99.90;;;;;;5081588;28;20031;-41
2023/05/26 09:09:21;;;;;;;15.23;3.30;;;13.20;99.90;;;;;;5081391;28;20024;-42
2023/05/26 09:11:46;;;;;;;11.77;3.17;;;13.30;99.90;;;;;;5080529;28;20119;-42
2023/05/26 09:14:13;;;;;;;9.07;3.30;;;13.30;99.90;;;;;;5081292;28;20105;-43
2023/05/26 09:16:39;;;;;;;8.55;3.08;;;13.40;99.90;;;;;;5080075;28;20111;-41
2023/05/26 09:19:06;;;;;;;10.75;2.88;;;13.40;99.90;;;;;;5080522;28;20087;-42
2023/05/26 09:21:31;;;;;;;8.65;2.72;;;13.50;99.90;;;;;;5080581;28;20864;-43
2023/05/26 09:24:00;;;;;;;9.57;3.25;;;13.60;99.90;;;;;;5081380;28;20820;-42
2023/05/26 09:26:33;;;;;;;11.90;3.67;;;13.60;99.90;;;;;;5080073;28;20042;-42
2023/05/26 09:29:00;;;;;;;11.35;3.40;;;13.60;99.90;;;;;;5081312;28;20020;-42
2023/05/26 09:31:36;;;;;;;12.70;3.80;;;13.70;99.90;;;;;;5079750;28;20112;-43
2023/05/26 09:34:02;;;;;;;11.65;3.65;;;13.80;99.90;;;;;;5078249;28;20043;-42
2023/05/26 09:36:27;;;;;;;10.63;3.28;;;13.80;99.90;;;;;;5081260;28;20116;-43
2023/05/26 09:38:53;;;;;;;12.73;3.53;;;13.80;99.90;;;;;;5080480;28;20662;-41
2023/05/26 09:41:20;;;;;;;13.73;3.40;;;13.90;99.90;;;;;;5081256;28;20773;-41
2023/05/26 09:43:49;;;;;;;8.07;2.60;;;14.00;99.90;;;;;;5080811;28;20035;-41
2023/05/26 09:46:23;;;;;;;9.57;2.85;;;14.00;99.90;;;;;;5080433;28;20403;-41
2023/05/26 09:48:50;;;;;;;9.38;3.10;;;14.10;99.90;;;;;;5081543;28;20082;-41
2023/05/26 09:51:30;;;;;;;12.40;3.88;;;14.10;99.90;;;;;;5081503;28;20028;-42
2023/05/26 09:53:55;;;;;;;9.93;3.20;;;14.20;99.00;;;;;;5081123;28;20111;-44
2023/05/26 09:56:26;;;;;;;9.90;3.60;;;14.20;98.80;;;;;;5081428;28;20192;-42
2023/05/26 09:58:54;;;;;;;14.15;3.72;;;14.30;98.30;;;;;;5081408;28;20107;-42
2023/05/26 10:01:21;;;;;;;11.23;3.25;;;14.40;98.00;;;;;;5080757;28;20789;-40
2023/05/26 10:03:48;;;;;;;10.00;3.08;;;14.50;97.80;;;;;;5081329;28;20052;-42
2023/05/26 10:06:17;;;;;;;12.90;3.55;;;14.50;97.50;;;;;;5081533;28;20474;-42
2023/05/26 10:08:45;;;;;;;14.68;3.95;;;14.50;97.30;;;;;;5080142;28;20356;-42
2023/05/26 10:11:11;;;;;;;9.00;3.55;;;14.60;97.10;;;;;;5081225;28;20455;-42
2023/05/26 10:13:38;;;;;;;9.70;3.50;;;14.60;97.30;;;;;;5083172;28;20048;-42
2023/05/26 10:16:04;;;;;;;14.98;3.38;;;14.60;97.10;;;;;;5084989;28;20542;-43
2023/05/26 10:18:30;;;;;;;8.32;3.00;;;14.70;96.90;;;;;;5084865;28;20027;-41
2023/05/26 10:21:04;;;;;;;8.02;2.65;;;14.80;96.80;;;;;;5084799;28;20479;-42
2023/05/26 10:23:39;;;;;;;8.95;3.13;;;14.80;96.80;;;;;;5083492;28;20051;-43
2023/05/26 10:26:15;;;;;;;9.93;2.88;;;14.90;97.00;;;;;;5084171;28;20028;-41
2023/05/26 10:28:51;;;;;;;7.90;2.90;;;15.00;97.10;;;;;;5082710;28;20020;-42
2023/05/26 10:31:29;;;;;;;7.45;2.65;;;15.00;97.10;;;;;;5084057;28;20040;-41
2023/05/26 10:33:56;;;;;;;10.07;3.28;;;15.10;97.20;;;;;;5084911;28;20019;-41
2023/05/26 10:36:22;;;;;;;11.20;3.22;;;15.10;97.20;;;;;;5082915;28;20510;-42
2023/05/26 10:38:50;;;;;;;8.02;2.70;;;15.20;97.00;;;;;;5084604;28;20016;-42
2023/05/26 10:41:34;;;;;;;8.32;3.33;;;15.20;96.80;;;;;;5085283;28;20046;-42
2023/05/26 10:44:01;;;;;;;8.13;3.00;;;15.30;95.90;;;;;;5084397;28;20024;-42
2023/05/26 10:46:44;;;;;;;7.18;2.70;;;15.30;95.80;;;;;;5083988;28;20020;-40
2023/05/26 10:49:21;;;;;;;9.07;3.00;;;15.40;95.80;;;;;;5084369;28;20016;-41
2023/05/26 10:51:56;;;;;;;12.65;3.17;;;15.30;95.70;;;;;;5092345;28;20043;-41
2023/05/26 10:54:24;;;;;;;7.88;2.97;;;15.40;95.70;;;;;;5102784;28;20027;-42
2023/05/26 10:56:52;;;;;;;9.80;3.05;;;15.40;95.50;;;;;;5081692;28;20072;-41
2023/05/26 10:59:21;;;;;;;11.27;3.65;;;15.50;94.80;;;;;;5083339;28;20042;-41
2023/05/26 11:01:52;;;;;;;11.18;3.03;;;15.60;94.10;;;;;;5083149;28;20031;-43
2023/05/26 11:04:18;;;;;;;7.60;2.53;;;15.60;94.00;;;;;;5083487;28;20035;-42
2023/05/26 11:07:00;;;;;;;11.10;2.97;;;15.60;93.70;;;;;;5082865;28;20682;-42
2023/05/26 11:09:37;;;;;;;9.82;3.15;;;15.70;93.70;;;;;;5083998;28;20105;-42
2023/05/26 11:12:06;;;;;;;9.25;2.90;;;15.70;93.80;;;;;;5082977;28;20124;-42
2023/05/26 11:14:34;;;;;;;7.93;2.88;;;15.80;93.70;;;;;;5083533;28;20028;-41
2023/05/26 11:17:11;;;;;;;7.55;2.88;;;15.80;93.60;;;;;;5083222;28;20059;-42
2023/05/26 11:19:38;;;;;;;7.47;2.58;;;15.90;93.60;;;;;;5082958;28;20039;-41
2023/05/26 11:22:09;;;;;;;10.60;2.85;;;15.90;93.50;;;;;;5083478;28;20039;-43
2023/05/26 11:24:36;;;;;;;8.57;2.80;;;16.00;93.30;;;;;;5081761;28;20041;-40
2023/05/26 11:27:08;;;;;;;8.20;2.67;;;16.00;93.10;;;;;;5083515;28;20027;-43
2023/05/26 11:29:33;;;;;;;11.15;3.65;;;16.10;92.50;;;;;;5063274;28;20020;-44
2023/05/26 11:31:59;;;;;;;9.00;2.80;;;16.20;92.20;;;;;;5076695;28;20106;-42
2023/05/26 11:34:28;;;;;;;8.85;2.80;;;16.20;92.00;;;;;;5082152;28;20032;-42
2023/05/26 11:36:54;;;;;;;8.10;2.65;;;16.20;92.20;;;;;;5081812;28;20635;-44
2023/05/26 11:39:22;;;;;;;9.43;2.60;;;16.30;92.40;;;;;;5080886;28;20032;-42
2023/05/26 11:41:48;;;;;;;6.90;2.30;;;16.30;92.60;;;;;;5082028;28;20271;-43
2023/05/26 11:44:15;;;;;;;7.85;2.70;;;16.40;92.60;;;;;;5083227;28;20019;-41
2023/05/26 11:46:42;;;;;;;9.63;2.88;;;16.40;92.60;;;;;;5080328;28;20016;-41
2023/05/26 11:49:14;;;;;;;13.48;3.85;;;16.50;92.20;;;;;;5083192;28;20079;-40
2023/05/26 11:51:47;;;;;;;;;;;16.60;92.20;;;;;;5082383;28;20038;-42
2023/05/26 11:54:12;;;;;;;9.40;3.22;;;16.60;91.90;;;;;;5082231;28;20002;-42
2023/05/26 11:56:38;;;;;;;9.27;3.35;;;16.70;92.00;;;;;;5081602;28;20147;-41
2023/05/26 11:59:04;;;;;;;8.75;2.85;;;16.70;91.70;;;;;;5082009;28;20020;-42
2023/05/26 12:01:32;;;;;;;8.73;2.58;;;16.80;92.10;;;;;;5081117;28;20558;-42
2023/05/26 12:04:00;;;;;;;8.13;2.70;;;16.80;91.80;;;;;;5078807;28;20035;-42
2023/05/26 12:06:27;;;;;;;11.73;3.10;;;16.80;91.80;;;;;;5082472;28;20028;-42
2023/05/26 12:08:58;;;;;;;10.52;3.03;;;16.80;91.70;;;;;;5083062;28;20024;-42
2023/05/26 12:11:32;;;;;;;9.23;3.47;;;16.90;91.40;;;;;;5082360;28;20043;-42
2023/05/26 12:13:59;;;;;;;11.35;4.40;;;16.90;91.20;;;;;;5081942;28;20024;-41
2023/05/26 12:16:41;;;;;;;8.60;2.97;;;17.00;91.00;;;;;;5081797;28;20082;-42
2023/05/26 12:19:13;;;;;;;9.25;2.42;;;17.00;91.30;;;;;;5082065;28;20020;-43
2023/05/26 12:22:01;;;;;;;9.10;2.50;;;17.00;91.40;;;;;;5080226;28;20024;-41
2023/05/26 12:24:35;;;;;;;8.55;2.67;;;17.00;91.40;;;;;;5081843;28;20102;-42
2023/05/26 12:27:07;;;;;;;8.90;2.53;;;17.10;91.40;;;;;;5082890;28;20031;-41
2023/05/26 12:29:40;;;;;;;8.70;2.85;;;17.20;91.30;;;;;;5080906;28;20059;-42
2023/05/26 12:32:07;;;;;;;7.22;2.88;;;17.30;90.50;;;;;;5083526;28;20040;-39
2023/05/26 12:34:33;;;;;;;8.27;2.53;;;17.30;90.10;;;;;;5080935;28;20035;-42
2023/05/26 12:36:59;;;;;;;8.38;2.72;;;17.40;90.30;;;;;;5082673;28;20039;-40
2023/05/26 12:39:28;;;;;;;8.38;2.20;;;17.40;90.40;;;;;;5080856;28;20024;-41
2023/05/26 12:41:54;;;;;;;10.52;2.80;;;17.40;90.50;;;;;;5080169;28;20063;-42
2023/05/26 12:44:29;;;;;;;10.13;2.78;;;17.50;90.10;;;;;;5081309;28;20161;-43